sensor_id;sensor_type;location;lat;lon;timestamp;P1;durP1;ratioP1;P2;durP2;ratioP2
39918;SDS011;25589;51.552;13.424;2022-08-25T00:01:21;12.38;;;8.90;;
39918;SDS011;25589;51.552;13.424;2022-08-25T00:03:49;13.70;;;8.70;;
39918;SDS011;25589;51.552;13.424;2022-08-25T00:06:16;14.02;;;9.85;;
39918;SDS011;25589;51.552;13.424;2022-08-25T00:08:43;14.35;;;9.25;;
39918;SDS011;25589;51.552;13.424;2022-08-25T00:11:10;12.88;;;9.10;;
39918;SDS011;25589;51.552;13.424;2022-08-25T00:13:41;14.38;;;9.02;;
39918;SDS011;25589;51.552;13.424;2022-08-25T00:16:13;15.98;;;10.23;;
39918;SDS011;25589;51.552;13.424;2022-08-25T00:18:41;16.00;;;8.95;;
39918;SDS011;25589;51.552;13.424;2022-08-25T00:21:10;11.65;;;8.02;;
39918;SDS011;25589;51.552;13.424;2022-08-25T00:23:36;14.68;;;9.88;;
39918;SDS011;25589;51.552;13.424;2022-08-25T00:26:02;13.13;;;9.25;;
39918;SDS011;25589;51.552;13.424;2022-08-25T00:28:28;16.45;;;9.77;;
39918;SDS011;25589;51.552;13.424;2022-08-25T00:30:55;12.52;;;9.63;;
39918;SDS011;25589;51.552;13.424;2022-08-25T00:33:21;12.73;;;9.77;;
39918;SDS011;25589;51.552;13.424;2022-08-25T00:35:46;11.90;;;9.48;;
39918;SDS011;25589;51.552;13.424;2022-08-25T00:38:12;15.25;;;9.75;;
39918;SDS011;25589;51.552;13.424;2022-08-25T00:40:38;11.32;;;8.88;;
39918;SDS011;25589;51.552;13.424;2022-08-25T00:43:06;13.80;;;9.63;;
39918;SDS011;25589;51.552;13.424;2022-08-25T00:45:32;11.60;;;9.40;;
39918;SDS011;25589;51.552;13.424;2022-08-25T00:47:58;12.55;;;9.05;;
39918;SDS011;25589;51.552;13.424;2022-08-25T00:50:25;16.55;;;9.07;;
39918;SDS011;25589;51.552;13.424;2022-08-25T00:52:53;14.82;;;9.38;;
39918;SDS011;25589;51.552;13.424;2022-08-25T00:55:22;12.35;;;9.68;;
39918;SDS011;25589;51.552;13.424;2022-08-25T00:58:02;13.52;;;9.48;;
39918;SDS011;25589;51.552;13.424;2022-08-25T01:00:33;14.60;;;9.43;;
39918;SDS011;25589;51.552;13.424;2022-08-25T01:03:02;12.73;;;10.35;;
39918;SDS011;25589;51.552;13.424;2022-08-25T01:05:28;13.93;;;9.45;;
39918;SDS011;25589;51.552;13.424;2022-08-25T01:07:54;14.05;;;9.30;;
39918;SDS011;25589;51.552;13.424;2022-08-25T01:10:22;14.25;;;10.23;;
39918;SDS011;25589;51.552;13.424;2022-08-25T01:12:49;18.13;;;10.32;;
39918;SDS011;25589;51.552;13.424;2022-08-25T01:15:19;14.48;;;9.70;;
39918;SDS011;25589;51.552;13.424;2022-08-25T01:17:49;13.88;;;9.02;;
39918;SDS011;25589;51.552;13.424;2022-08-25T01:20:18;19.08;;;9.85;;
39918;SDS011;25589;51.552;13.424;2022-08-25T01:22:45;12.30;;;9.50;;
39918;SDS011;25589;51.552;13.424;2022-08-25T01:25:16;14.77;;;10.52;;
39918;SDS011;25589;51.552;13.424;2022-08-25T01:28:03;16.38;;;9.65;;
39918;SDS011;25589;51.552;13.424;2022-08-25T01:30:28;14.40;;;10.30;;
39918;SDS011;25589;51.552;13.424;2022-08-25T01:32:54;16.30;;;9.45;;
39918;SDS011;25589;51.552;13.424;2022-08-25T01:35:19;13.55;;;9.75;;
39918;SDS011;25589;51.552;13.424;2022-08-25T01:37:45;15.95;;;9.63;;
39918;SDS011;25589;51.552;13.424;2022-08-25T01:40:12;14.93;;;9.57;;
39918;SDS011;25589;51.552;13.424;2022-08-25T01:42:47;12.82;;;8.90;;
39918;SDS011;25589;51.552;13.424;2022-08-25T01:45:30;14.43;;;10.80;;
39918;SDS011;25589;51.552;13.424;2022-08-25T01:47:59;13.55;;;9.20;;
39918;SDS011;25589;51.552;13.424;2022-08-25T01:50:26;14.77;;;10.15;;
39918;SDS011;25589;51.552;13.424;2022-08-25T01:53:11;16.88;;;10.13;;
39918;SDS011;25589;51.552;13.424;2022-08-25T01:55:46;16.75;;;10.20;;
39918;SDS011;25589;51.552;13.424;2022-08-25T01:58:29;11.57;;;9.32;;
39918;SDS011;25589;51.552;13.424;2022-08-25T02:00:58;15.20;;;10.80;;
39918;SDS011;25589;51.552;13.424;2022-08-25T02:03:26;14.07;;;9.77;;
39918;SDS011;25589;51.552;13.424;2022-08-25T02:05:52;16.98;;;10.18;;
39918;SDS011;25589;51.552;13.424;2022-08-25T02:08:18;14.55;;;9.77;;
39918;SDS011;25589;51.552;13.424;2022-08-25T02:10:45;15.88;;;10.57;;
39918;SDS011;25589;51.552;13.424;2022-08-25T02:13:11;17.25;;;10.93;;
39918;SDS011;25589;51.552;13.424;2022-08-25T02:15:41;15.27;;;10.20;;
39918;SDS011;25589;51.552;13.424;2022-08-25T02:18:08;15.02;;;10.38;;
39918;SDS011;25589;51.552;13.424;2022-08-25T02:20:34;13.77;;;9.70;;
39918;SDS011;25589;51.552;13.424;2022-08-25T02:23:00;23.88;;;10.25;;
39918;SDS011;25589;51.552;13.424;2022-08-25T02:25:26;14.07;;;10.70;;
39918;SDS011;25589;51.552;13.424;2022-08-25T02:27:51;16.02;;;10.10;;
39918;SDS011;25589;51.552;13.424;2022-08-25T02:30:17;17.27;;;10.60;;
39918;SDS011;25589;51.552;13.424;2022-08-25T02:32:42;14.00;;;10.25;;
39918;SDS011;25589;51.552;13.424;2022-08-25T02:35:08;14.70;;;11.25;;
39918;SDS011;25589;51.552;13.424;2022-08-25T02:37:34;18.00;;;11.10;;
39918;SDS011;25589;51.552;13.424;2022-08-25T02:40:00;13.70;;;9.65;;
39918;SDS011;25589;51.552;13.424;2022-08-25T02:42:26;14.07;;;10.38;;
39918;SDS011;25589;51.552;13.424;2022-08-25T02:44:51;15.85;;;10.32;;
39918;SDS011;25589;51.552;13.424;2022-08-25T02:47:18;15.00;;;9.85;;
39918;SDS011;25589;51.552;13.424;2022-08-25T02:49:43;13.57;;;10.25;;
39918;SDS011;25589;51.552;13.424;2022-08-25T02:52:09;20.35;;;10.55;;
39918;SDS011;25589;51.552;13.424;2022-08-25T02:54:35;15.65;;;11.00;;
39918;SDS011;25589;51.552;13.424;2022-08-25T02:57:01;21.60;;;11.60;;
39918;SDS011;25589;51.552;13.424;2022-08-25T02:59:26;20.83;;;11.45;;
39918;SDS011;25589;51.552;13.424;2022-08-25T03:01:52;15.00;;;11.23;;
39918;SDS011;25589;51.552;13.424;2022-08-25T03:04:18;16.63;;;11.73;;
39918;SDS011;25589;51.552;13.424;2022-08-25T03:06:44;20.67;;;12.13;;
39918;SDS011;25589;51.552;13.424;2022-08-25T03:09:14;14.82;;;11.50;;
39918;SDS011;25589;51.552;13.424;2022-08-25T03:11:40;16.20;;;11.10;;
39918;SDS011;25589;51.552;13.424;2022-08-25T03:14:07;17.95;;;12.73;;
39918;SDS011;25589;51.552;13.424;2022-08-25T03:16:34;17.27;;;11.70;;
39918;SDS011;25589;51.552;13.424;2022-08-25T03:19:00;18.10;;;11.88;;
39918;SDS011;25589;51.552;13.424;2022-08-25T03:21:26;20.08;;;11.70;;
39918;SDS011;25589;51.552;13.424;2022-08-25T03:23:53;12.88;;;10.77;;
39918;SDS011;25589;51.552;13.424;2022-08-25T03:26:19;17.50;;;11.30;;
39918;SDS011;25589;51.552;13.424;2022-08-25T03:29:03;16.38;;;12.27;;
39918;SDS011;25589;51.552;13.424;2022-08-25T03:31:30;16.55;;;11.23;;
39918;SDS011;25589;51.552;13.424;2022-08-25T03:33:57;15.25;;;11.43;;
39918;SDS011;25589;51.552;13.424;2022-08-25T03:36:23;21.63;;;11.95;;
39918;SDS011;25589;51.552;13.424;2022-08-25T03:38:49;15.68;;;12.10;;
39918;SDS011;25589;51.552;13.424;2022-08-25T03:41:19;15.27;;;11.38;;
39918;SDS011;25589;51.552;13.424;2022-08-25T03:43:47;16.40;;;10.40;;
39918;SDS011;25589;51.552;13.424;2022-08-25T03:46:20;15.88;;;11.77;;
39918;SDS011;25589;51.552;13.424;2022-08-25T03:48:49;14.32;;;11.02;;
39918;SDS011;25589;51.552;13.424;2022-08-25T03:51:34;17.08;;;12.77;;
39918;SDS011;25589;51.552;13.424;2022-08-25T03:54:01;14.55;;;11.10;;
39918;SDS011;25589;51.552;13.424;2022-08-25T03:56:29;17.67;;;11.57;;
39918;SDS011;25589;51.552;13.424;2022-08-25T03:58:55;16.45;;;11.65;;
39918;SDS011;25589;51.552;13.424;2022-08-25T04:01:20;18.55;;;11.45;;
39918;SDS011;25589;51.552;13.424;2022-08-25T04:03:47;21.80;;;12.82;;
39918;SDS011;25589;51.552;13.424;2022-08-25T04:06:13;19.48;;;11.90;;
39918;SDS011;25589;51.552;13.424;2022-08-25T04:08:40;16.73;;;11.63;;
39918;SDS011;25589;51.552;13.424;2022-08-25T04:11:07;17.70;;;11.45;;
39918;SDS011;25589;51.552;13.424;2022-08-25T04:13:41;16.08;;;11.15;;
39918;SDS011;25589;51.552;13.424;2022-08-25T04:16:11;16.60;;;10.75;;
39918;SDS011;25589;51.552;13.424;2022-08-25T04:18:39;14.27;;;11.38;;
39918;SDS011;25589;51.552;13.424;2022-08-25T04:21:06;16.90;;;11.35;;
39918;SDS011;25589;51.552;13.424;2022-08-25T04:23:33;19.33;;;11.93;;
39918;SDS011;25589;51.552;13.424;2022-08-25T04:26:00;14.32;;;11.20;;
39918;SDS011;25589;51.552;13.424;2022-08-25T04:28:27;15.52;;;10.35;;
39918;SDS011;25589;51.552;13.424;2022-08-25T04:30:52;14.60;;;11.02;;
39918;SDS011;25589;51.552;13.424;2022-08-25T04:33:18;15.13;;;11.40;;
39918;SDS011;25589;51.552;13.424;2022-08-25T04:35:49;16.70;;;11.65;;
39918;SDS011;25589;51.552;13.424;2022-08-25T04:38:15;13.80;;;10.23;;
39918;SDS011;25589;51.552;13.424;2022-08-25T04:40:41;21.45;;;10.90;;
39918;SDS011;25589;51.552;13.424;2022-08-25T04:43:06;12.82;;;9.82;;
39918;SDS011;25589;51.552;13.424;2022-08-25T04:45:35;10.73;;;9.63;;
39918;SDS011;25589;51.552;13.424;2022-08-25T04:48:04;14.30;;;10.13;;
39918;SDS011;25589;51.552;13.424;2022-08-25T04:50:30;14.77;;;10.65;;
39918;SDS011;25589;51.552;13.424;2022-08-25T04:52:58;16.45;;;11.65;;
39918;SDS011;25589;51.552;13.424;2022-08-25T04:55:23;18.15;;;11.07;;
39918;SDS011;25589;51.552;13.424;2022-08-25T04:57:49;16.88;;;11.25;;
39918;SDS011;25589;51.552;13.424;2022-08-25T05:00:15;16.13;;;11.25;;
39918;SDS011;25589;51.552;13.424;2022-08-25T05:02:42;17.23;;;12.25;;
39918;SDS011;25589;51.552;13.424;2022-08-25T05:05:07;15.30;;;11.38;;
39918;SDS011;25589;51.552;13.424;2022-08-25T05:07:33;20.48;;;11.63;;
39918;SDS011;25589;51.552;13.424;2022-08-25T05:09:58;19.42;;;12.02;;
39918;SDS011;25589;51.552;13.424;2022-08-25T05:12:24;15.90;;;11.38;;
39918;SDS011;25589;51.552;13.424;2022-08-25T05:14:52;16.98;;;12.30;;
39918;SDS011;25589;51.552;13.424;2022-08-25T05:17:18;15.43;;;12.65;;
39918;SDS011;25589;51.552;13.424;2022-08-25T05:19:44;16.60;;;11.70;;
39918;SDS011;25589;51.552;13.424;2022-08-25T05:22:09;17.23;;;12.25;;
39918;SDS011;25589;51.552;13.424;2022-08-25T05:24:35;19.63;;;12.50;;
39918;SDS011;25589;51.552;13.424;2022-08-25T05:27:01;19.95;;;13.13;;
39918;SDS011;25589;51.552;13.424;2022-08-25T05:29:27;19.15;;;12.35;;
39918;SDS011;25589;51.552;13.424;2022-08-25T05:31:53;16.90;;;13.15;;
39918;SDS011;25589;51.552;13.424;2022-08-25T05:34:19;18.42;;;12.07;;
39918;SDS011;25589;51.552;13.424;2022-08-25T05:36:46;15.02;;;12.13;;
39918;SDS011;25589;51.552;13.424;2022-08-25T05:39:12;20.73;;;12.70;;
39918;SDS011;25589;51.552;13.424;2022-08-25T05:41:38;18.75;;;12.77;;
39918;SDS011;25589;51.552;13.424;2022-08-25T05:44:04;20.58;;;13.45;;
39918;SDS011;25589;51.552;13.424;2022-08-25T05:46:30;18.27;;;12.75;;
39918;SDS011;25589;51.552;13.424;2022-08-25T05:48:55;16.83;;;12.38;;
39918;SDS011;25589;51.552;13.424;2022-08-25T05:51:21;19.17;;;13.05;;
39918;SDS011;25589;51.552;13.424;2022-08-25T05:53:48;17.70;;;13.23;;
39918;SDS011;25589;51.552;13.424;2022-08-25T05:56:15;16.65;;;11.70;;
39918;SDS011;25589;51.552;13.424;2022-08-25T05:58:41;18.65;;;12.95;;
39918;SDS011;25589;51.552;13.424;2022-08-25T06:01:08;19.10;;;12.82;;
39918;SDS011;25589;51.552;13.424;2022-08-25T06:04:00;18.15;;;12.98;;
39918;SDS011;25589;51.552;13.424;2022-08-25T06:06:26;16.95;;;12.48;;
39918;SDS011;25589;51.552;13.424;2022-08-25T06:08:52;17.35;;;12.10;;
39918;SDS011;25589;51.552;13.424;2022-08-25T06:11:17;17.85;;;11.88;;
39918;SDS011;25589;51.552;13.424;2022-08-25T06:13:43;21.38;;;13.15;;
39918;SDS011;25589;51.552;13.424;2022-08-25T06:16:09;15.98;;;12.73;;
39918;SDS011;25589;51.552;13.424;2022-08-25T06:18:35;15.77;;;12.27;;
39918;SDS011;25589;51.552;13.424;2022-08-25T06:21:13;15.88;;;12.45;;
39918;SDS011;25589;51.552;13.424;2022-08-25T06:23:39;16.58;;;13.00;;
39918;SDS011;25589;51.552;13.424;2022-08-25T06:26:05;19.73;;;13.73;;
39918;SDS011;25589;51.552;13.424;2022-08-25T06:28:33;16.83;;;12.85;;
39918;SDS011;25589;51.552;13.424;2022-08-25T06:30:59;16.77;;;13.10;;
39918;SDS011;25589;51.552;13.424;2022-08-25T06:33:26;16.83;;;12.98;;
39918;SDS011;25589;51.552;13.424;2022-08-25T06:35:52;19.48;;;12.93;;
39918;SDS011;25589;51.552;13.424;2022-08-25T06:38:20;17.85;;;13.10;;
39918;SDS011;25589;51.552;13.424;2022-08-25T06:40:46;17.00;;;12.57;;
39918;SDS011;25589;51.552;13.424;2022-08-25T06:43:12;16.65;;;11.50;;
39918;SDS011;25589;51.552;13.424;2022-08-25T06:45:39;20.67;;;13.30;;
39918;SDS011;25589;51.552;13.424;2022-08-25T06:48:05;16.60;;;13.23;;
39918;SDS011;25589;51.552;13.424;2022-08-25T06:50:31;16.23;;;13.10;;
39918;SDS011;25589;51.552;13.424;2022-08-25T06:52:56;18.05;;;12.90;;
39918;SDS011;25589;51.552;13.424;2022-08-25T06:55:22;16.95;;;12.35;;
39918;SDS011;25589;51.552;13.424;2022-08-25T06:57:50;19.02;;;12.48;;
39918;SDS011;25589;51.552;13.424;2022-08-25T07:00:17;16.52;;;12.80;;
39918;SDS011;25589;51.552;13.424;2022-08-25T07:02:43;18.58;;;12.10;;
39918;SDS011;25589;51.552;13.424;2022-08-25T07:05:08;16.35;;;12.38;;
39918;SDS011;25589;51.552;13.424;2022-08-25T07:07:35;16.30;;;12.70;;
39918;SDS011;25589;51.552;13.424;2022-08-25T07:10:01;20.33;;;12.90;;
39918;SDS011;25589;51.552;13.424;2022-08-25T07:12:27;19.20;;;12.73;;
39918;SDS011;25589;51.552;13.424;2022-08-25T07:14:53;18.98;;;12.70;;
39918;SDS011;25589;51.552;13.424;2022-08-25T07:17:20;19.58;;;12.32;;
39918;SDS011;25589;51.552;13.424;2022-08-25T07:19:47;21.70;;;12.65;;
39918;SDS011;25589;51.552;13.424;2022-08-25T07:22:13;16.33;;;13.82;;
39918;SDS011;25589;51.552;13.424;2022-08-25T07:24:39;23.70;;;14.35;;
39918;SDS011;25589;51.552;13.424;2022-08-25T07:27:05;19.38;;;12.23;;
39918;SDS011;25589;51.552;13.424;2022-08-25T07:29:30;16.50;;;12.35;;
39918;SDS011;25589;51.552;13.424;2022-08-25T07:31:58;17.42;;;11.18;;
39918;SDS011;25589;51.552;13.424;2022-08-25T07:34:24;20.83;;;12.10;;
39918;SDS011;25589;51.552;13.424;2022-08-25T07:37:08;17.33;;;12.45;;
39918;SDS011;25589;51.552;13.424;2022-08-25T07:39:34;16.20;;;11.30;;
39918;SDS011;25589;51.552;13.424;2022-08-25T07:42:00;19.13;;;12.35;;
39918;SDS011;25589;51.552;13.424;2022-08-25T07:44:25;20.50;;;11.73;;
39918;SDS011;25589;51.552;13.424;2022-08-25T07:46:51;15.18;;;10.57;;
39918;SDS011;25589;51.552;13.424;2022-08-25T07:49:18;15.95;;;10.75;;
39918;SDS011;25589;51.552;13.424;2022-08-25T07:51:45;17.88;;;10.95;;
39918;SDS011;25589;51.552;13.424;2022-08-25T07:54:11;15.15;;;10.52;;
39918;SDS011;25589;51.552;13.424;2022-08-25T07:56:37;20.20;;;11.18;;
39918;SDS011;25589;51.552;13.424;2022-08-25T07:59:06;19.20;;;11.75;;
39918;SDS011;25589;51.552;13.424;2022-08-25T08:01:31;17.05;;;10.50;;
39918;SDS011;25589;51.552;13.424;2022-08-25T08:03:57;18.77;;;11.55;;
39918;SDS011;25589;51.552;13.424;2022-08-25T08:06:23;19.27;;;10.55;;
39918;SDS011;25589;51.552;13.424;2022-08-25T08:08:50;14.50;;;10.10;;
39918;SDS011;25589;51.552;13.424;2022-08-25T08:11:18;12.93;;;10.02;;
39918;SDS011;25589;51.552;13.424;2022-08-25T08:13:50;14.20;;;9.68;;
39918;SDS011;25589;51.552;13.424;2022-08-25T08:16:17;14.60;;;10.52;;
39918;SDS011;25589;51.552;13.424;2022-08-25T08:18:43;16.10;;;9.75;;
39918;SDS011;25589;51.552;13.424;2022-08-25T08:21:11;18.30;;;10.40;;
39918;SDS011;25589;51.552;13.424;2022-08-25T08:23:52;12.27;;;9.93;;
39918;SDS011;25589;51.552;13.424;2022-08-25T08:26:18;16.55;;;10.07;;
39918;SDS011;25589;51.552;13.424;2022-08-25T08:28:45;15.20;;;9.20;;
39918;SDS011;25589;51.552;13.424;2022-08-25T08:31:10;16.98;;;9.40;;
39918;SDS011;25589;51.552;13.424;2022-08-25T08:33:36;14.80;;;9.30;;
39918;SDS011;25589;51.552;13.424;2022-08-25T08:36:06;17.52;;;8.95;;
39918;SDS011;25589;51.552;13.424;2022-08-25T08:38:34;11.33;;;8.57;;
39918;SDS011;25589;51.552;13.424;2022-08-25T08:44:02;14.32;;;8.32;;
39918;SDS011;25589;51.552;13.424;2022-08-25T08:46:39;13.77;;;8.25;;
39918;SDS011;25589;51.552;13.424;2022-08-25T08:49:29;20.08;;;9.43;;
39918;SDS011;25589;51.552;13.424;2022-08-25T08:52:17;8.77;;;7.80;;
39918;SDS011;25589;51.552;13.424;2022-08-25T08:54:46;15.52;;;8.27;;
39918;SDS011;25589;51.552;13.424;2022-08-25T08:57:18;11.45;;;8.02;;
39918;SDS011;25589;51.552;13.424;2022-08-25T08:59:49;14.35;;;7.90;;
39918;SDS011;25589;51.552;13.424;2022-08-25T09:02:22;12.88;;;8.07;;
39918;SDS011;25589;51.552;13.424;2022-08-25T09:04:58;12.73;;;7.50;;
39918;SDS011;25589;51.552;13.424;2022-08-25T09:07:29;12.27;;;7.95;;
39918;SDS011;25589;51.552;13.424;2022-08-25T09:10:00;14.82;;;7.93;;
39918;SDS011;25589;51.552;13.424;2022-08-25T09:12:33;13.40;;;7.18;;
39918;SDS011;25589;51.552;13.424;2022-08-25T09:15:32;12.75;;;7.07;;
39918;SDS011;25589;51.552;13.424;2022-08-25T09:21:01;13.35;;;8.30;;
39918;SDS011;25589;51.552;13.424;2022-08-25T09:26:12;16.05;;;7.13;;
39918;SDS011;25589;51.552;13.424;2022-08-25T09:29:01;16.47;;;8.00;;
39918;SDS011;25589;51.552;13.424;2022-08-25T09:31:38;12.93;;;7.13;;
39918;SDS011;25589;51.552;13.424;2022-08-25T09:34:12;15.90;;;8.02;;
39918;SDS011;25589;51.552;13.424;2022-08-25T09:36:46;10.60;;;7.18;;
39918;SDS011;25589;51.552;13.424;2022-08-25T09:39:14;10.07;;;7.38;;
39918;SDS011;25589;51.552;13.424;2022-08-25T09:41:51;12.52;;;7.55;;
39918;SDS011;25589;51.552;13.424;2022-08-25T09:44:30;12.73;;;7.75;;
39918;SDS011;25589;51.552;13.424;2022-08-25T09:49:45;14.07;;;7.03;;
39918;SDS011;25589;51.552;13.424;2022-08-25T09:52:18;14.98;;;7.50;;
39918;SDS011;25589;51.552;13.424;2022-08-25T09:54:50;13.77;;;7.55;;
39918;SDS011;25589;51.552;13.424;2022-08-25T09:57:42;17.98;;;8.05;;
39918;SDS011;25589;51.552;13.424;2022-08-25T10:00:15;17.98;;;9.00;;
39918;SDS011;25589;51.552;13.424;2022-08-25T10:02:43;10.18;;;7.07;;
39918;SDS011;25589;51.552;13.424;2022-08-25T10:05:24;17.42;;;7.82;;
39918;SDS011;25589;51.552;13.424;2022-08-25T10:07:53;14.95;;;6.75;;
39918;SDS011;25589;51.552;13.424;2022-08-25T10:10:43;14.32;;;8.10;;
39918;SDS011;25589;51.552;13.424;2022-08-25T10:13:17;15.95;;;7.63;;
39918;SDS011;25589;51.552;13.424;2022-08-25T10:15:44;13.88;;;8.25;;
39918;SDS011;25589;51.552;13.424;2022-08-25T10:23:40;14.98;;;8.20;;
39918;SDS011;25589;51.552;13.424;2022-08-25T10:26:31;15.82;;;8.10;;
39918;SDS011;25589;51.552;13.424;2022-08-25T10:31:56;20.90;;;9.20;;
39918;SDS011;25589;51.552;13.424;2022-08-25T10:34:32;16.65;;;8.20;;
39918;SDS011;25589;51.552;13.424;2022-08-25T10:37:27;12.57;;;8.07;;
39918;SDS011;25589;51.552;13.424;2022-08-25T10:45:40;15.45;;;8.38;;
39918;SDS011;25589;51.552;13.424;2022-08-25T10:51:07;16.00;;;8.10;;
39918;SDS011;25589;51.552;13.424;2022-08-25T10:53:43;14.80;;;7.35;;
39918;SDS011;25589;51.552;13.424;2022-08-25T10:56:16;15.57;;;8.23;;
39918;SDS011;25589;51.552;13.424;2022-08-25T11:02:27;20.38;;;8.20;;
39918;SDS011;25589;51.552;13.424;2022-08-25T11:07:45;18.80;;;8.40;;
39918;SDS011;25589;51.552;13.424;2022-08-25T11:10:19;19.42;;;7.70;;
39918;SDS011;25589;51.552;13.424;2022-08-25T11:12:52;16.83;;;7.75;;
39918;SDS011;25589;51.552;13.424;2022-08-25T11:15:28;14.45;;;8.38;;
39918;SDS011;25589;51.552;13.424;2022-08-25T11:18:02;17.58;;;8.13;;
39918;SDS011;25589;51.552;13.424;2022-08-25T11:25:53;8.10;;;6.22;;
39918;SDS011;25589;51.552;13.424;2022-08-25T11:31:18;21.85;;;7.75;;
39918;SDS011;25589;51.552;13.424;2022-08-25T11:33:47;14.00;;;7.28;;
39918;SDS011;25589;51.552;13.424;2022-08-25T11:36:22;21.33;;;8.63;;
39918;SDS011;25589;51.552;13.424;2022-08-25T11:39:13;17.17;;;8.70;;
39918;SDS011;25589;51.552;13.424;2022-08-25T11:44:45;16.05;;;7.75;;
39918;SDS011;25589;51.552;13.424;2022-08-25T11:52:55;16.83;;;8.50;;
39918;SDS011;25589;51.552;13.424;2022-08-25T11:55:44;19.95;;;8.43;;
39918;SDS011;25589;51.552;13.424;2022-08-25T11:58:32;14.15;;;8.93;;
39918;SDS011;25589;51.552;13.424;2022-08-25T12:04:38;14.18;;;8.27;;
39918;SDS011;25589;51.552;13.424;2022-08-25T12:12:28;20.13;;;8.07;;
39918;SDS011;25589;51.552;13.424;2022-08-25T12:18:06;20.00;;;9.00;;
39918;SDS011;25589;51.552;13.424;2022-08-25T12:23:27;14.98;;;8.27;;
39918;SDS011;25589;51.552;13.424;2022-08-25T12:25:59;22.02;;;8.63;;
39918;SDS011;25589;51.552;13.424;2022-08-25T12:28:38;20.33;;;8.85;;
39918;SDS011;25589;51.552;13.424;2022-08-25T12:36:55;20.85;;;8.90;;
39918;SDS011;25589;51.552;13.424;2022-08-25T12:39:28;21.08;;;8.93;;
39918;SDS011;25589;51.552;13.424;2022-08-25T12:47:10;22.73;;;8.68;;
39918;SDS011;25589;51.552;13.424;2022-08-25T12:49:49;16.83;;;8.27;;
39918;SDS011;25589;51.552;13.424;2022-08-25T12:52:21;21.00;;;8.45;;
39918;SDS011;25589;51.552;13.424;2022-08-25T12:54:59;21.13;;;8.57;;
39918;SDS011;25589;51.552;13.424;2022-08-25T13:00:25;24.10;;;8.65;;
39918;SDS011;25589;51.552;13.424;2022-08-25T13:03:03;18.00;;;8.43;;
39918;SDS011;25589;51.552;13.424;2022-08-25T13:05:54;15.73;;;7.80;;
39918;SDS011;25589;51.552;13.424;2022-08-25T13:11:34;18.80;;;7.50;;
39918;SDS011;25589;51.552;13.424;2022-08-25T13:16:56;18.65;;;7.88;;
39918;SDS011;25589;51.552;13.424;2022-08-25T13:19:24;23.95;;;7.75;;
39918;SDS011;25589;51.552;13.424;2022-08-25T13:21:53;20.13;;;7.53;;
39918;SDS011;25589;51.552;13.424;2022-08-25T13:24:23;19.83;;;7.05;;
39918;SDS011;25589;51.552;13.424;2022-08-25T13:27:17;18.92;;;7.50;;
39918;SDS011;25589;51.552;13.424;2022-08-25T13:29:51;20.63;;;7.10;;
39918;SDS011;25589;51.552;13.424;2022-08-25T13:32:24;29.95;;;7.72;;
39918;SDS011;25589;51.552;13.424;2022-08-25T13:35:20;24.05;;;7.45;;
39918;SDS011;25589;51.552;13.424;2022-08-25T13:37:49;24.40;;;6.93;;
39918;SDS011;25589;51.552;13.424;2022-08-25T13:42:51;25.00;;;7.68;;
39918;SDS011;25589;51.552;13.424;2022-08-25T13:45:23;18.67;;;6.43;;
39918;SDS011;25589;51.552;13.424;2022-08-25T13:47:51;21.30;;;6.65;;
39918;SDS011;25589;51.552;13.424;2022-08-25T13:50:20;17.40;;;7.03;;
39918;SDS011;25589;51.552;13.424;2022-08-25T13:53:01;17.25;;;7.47;;
39918;SDS011;25589;51.552;13.424;2022-08-25T13:58:14;19.33;;;7.50;;
39918;SDS011;25589;51.552;13.424;2022-08-25T14:00:44;19.50;;;7.70;;
39918;SDS011;25589;51.552;13.424;2022-08-25T14:03:29;21.08;;;8.13;;
39918;SDS011;25589;51.552;13.424;2022-08-25T14:06:25;25.20;;;7.78;;
39918;SDS011;25589;51.552;13.424;2022-08-25T14:11:27;23.23;;;7.68;;
39918;SDS011;25589;51.552;13.424;2022-08-25T14:14:03;19.87;;;7.17;;
39918;SDS011;25589;51.552;13.424;2022-08-25T14:16:46;20.65;;;7.10;;
39918;SDS011;25589;51.552;13.424;2022-08-25T14:19:15;21.80;;;8.43;;
39918;SDS011;25589;51.552;13.424;2022-08-25T14:21:44;23.15;;;7.40;;
39918;SDS011;25589;51.552;13.424;2022-08-25T14:24:14;20.75;;;7.57;;
39918;SDS011;25589;51.552;13.424;2022-08-25T14:26:42;21.02;;;7.50;;
39918;SDS011;25589;51.552;13.424;2022-08-25T14:29:09;15.50;;;7.65;;
39918;SDS011;25589;51.552;13.424;2022-08-25T14:31:35;20.48;;;7.53;;
39918;SDS011;25589;51.552;13.424;2022-08-25T14:34:05;24.38;;;7.80;;
39918;SDS011;25589;51.552;13.424;2022-08-25T14:36:34;24.42;;;7.47;;
39918;SDS011;25589;51.552;13.424;2022-08-25T14:39:00;22.67;;;7.78;;
39918;SDS011;25589;51.552;13.424;2022-08-25T14:41:31;25.05;;;7.88;;
39918;SDS011;25589;51.552;13.424;2022-08-25T14:43:58;27.05;;;8.93;;
39918;SDS011;25589;51.552;13.424;2022-08-25T14:46:28;21.38;;;7.45;;
39918;SDS011;25589;51.552;13.424;2022-08-25T14:48:57;21.75;;;7.25;;
39918;SDS011;25589;51.552;13.424;2022-08-25T14:51:24;21.55;;;7.72;;
39918;SDS011;25589;51.552;13.424;2022-08-25T14:53:52;23.15;;;8.57;;
39918;SDS011;25589;51.552;13.424;2022-08-25T14:56:20;22.95;;;8.95;;
39918;SDS011;25589;51.552;13.424;2022-08-25T14:58:45;26.48;;;8.18;;
39918;SDS011;25589;51.552;13.424;2022-08-25T15:01:14;20.65;;;7.75;;
39918;SDS011;25589;51.552;13.424;2022-08-25T15:03:42;22.00;;;7.78;;
39918;SDS011;25589;51.552;13.424;2022-08-25T15:06:11;24.67;;;7.63;;
39918;SDS011;25589;51.552;13.424;2022-08-25T15:08:38;23.90;;;7.72;;
39918;SDS011;25589;51.552;13.424;2022-08-25T15:11:43;21.27;;;7.07;;
39918;SDS011;25589;51.552;13.424;2022-08-25T15:14:12;25.90;;;8.70;;
39918;SDS011;25589;51.552;13.424;2022-08-25T15:19:11;24.50;;;8.95;;
39918;SDS011;25589;51.552;13.424;2022-08-25T15:21:39;19.77;;;8.25;;
39918;SDS011;25589;51.552;13.424;2022-08-25T15:24:07;32.55;;;8.10;;
39918;SDS011;25589;51.552;13.424;2022-08-25T15:26:41;25.20;;;8.48;;
39918;SDS011;25589;51.552;13.424;2022-08-25T15:29:10;20.77;;;8.25;;
39918;SDS011;25589;51.552;13.424;2022-08-25T15:31:36;27.67;;;8.18;;
39918;SDS011;25589;51.552;13.424;2022-08-25T15:34:04;21.65;;;8.07;;
39918;SDS011;25589;51.552;13.424;2022-08-25T15:36:31;19.77;;;7.88;;
39918;SDS011;25589;51.552;13.424;2022-08-25T15:38:57;18.27;;;7.65;;
39918;SDS011;25589;51.552;13.424;2022-08-25T15:41:23;21.90;;;8.35;;
39918;SDS011;25589;51.552;13.424;2022-08-25T15:43:48;25.23;;;8.18;;
39918;SDS011;25589;51.552;13.424;2022-08-25T15:46:15;28.33;;;7.90;;
39918;SDS011;25589;51.552;13.424;2022-08-25T15:48:44;27.55;;;7.13;;
39918;SDS011;25589;51.552;13.424;2022-08-25T15:51:11;30.05;;;7.82;;
39918;SDS011;25589;51.552;13.424;2022-08-25T15:53:38;25.40;;;7.72;;
39918;SDS011;25589;51.552;13.424;2022-08-25T15:56:04;21.83;;;6.78;;
39918;SDS011;25589;51.552;13.424;2022-08-25T15:58:30;36.53;;;7.72;;
39918;SDS011;25589;51.552;13.424;2022-08-25T16:00:56;24.52;;;6.68;;
39918;SDS011;25589;51.552;13.424;2022-08-25T16:03:22;23.30;;;6.95;;
39918;SDS011;25589;51.552;13.424;2022-08-25T16:05:49;31.58;;;8.18;;
39918;SDS011;25589;51.552;13.424;2022-08-25T16:08:14;24.55;;;6.88;;